Time;durP1;ratioP1;P1;durP2;ratioP2;P2;SDS_P1;SDS_P2;PMS_P1;PMS_P2;Temp;Humidity;BMP_temperature;BMP_pressure;BME280_temperature;BME280_humidity;BME280_pressure;Samples;Min_cycle;Max_cycle;Signal;HPM_P1;HPM_P2
2022/08/10 00:00:21;;;;;;;3.05;2.10;;;24.10;53.50;;;;;;4422325;32;19981;-68
2022/08/10 00:02:48;;;;;;;3.58;1.83;;;24.10;53.70;;;;;;4422163;32;20015;-68
2022/08/10 00:05:15;;;;;;;3.28;1.83;;;24.20;53.60;;;;;;4422333;32;20137;-68
2022/08/10 00:07:42;;;;;;;3.95;1.95;;;24.00;53.80;;;;;;4422260;32;19965;-68
2022/08/10 00:10:11;;;;;;;2.55;2.03;;;24.00;54.10;;;;;;4422236;32;20032;-69
2022/08/10 00:12:38;;;;;;;3.67;1.90;;;24.10;54.00;;;;;;4422120;32;19981;-69
2022/08/10 00:15:07;;;;;;;4.35;2.17;;;24.00;54.00;;;;;;4422063;32;20038;-68
2022/08/10 00:17:33;;;;;;;4.30;1.85;;;24.00;53.90;;;;;;4421969;32;20024;-69
2022/08/10 00:20:00;;;;;;;2.40;1.70;;;23.80;54.40;;;;;;4422096;32;19996;-68
2022/08/10 00:22:27;;;;;;;4.25;1.70;;;23.80;54.70;;;;;;4421957;32;19988;-69
2022/08/10 00:24:56;;;;;;;3.30;1.90;;;23.70;54.90;;;;;;4422149;32;19991;-69
2022/08/10 00:27:24;;;;;;;3.70;1.80;;;23.70;54.80;;;;;;4418763;32;19958;-69
2022/08/10 00:29:52;;;;;;;2.37;1.75;;;23.50;55.30;;;;;;4421987;32;19958;-69
2022/08/10 00:32:19;;;;;;;4.15;1.77;;;23.70;55.10;;;;;;4421878;32;19961;-69
2022/08/10 00:34:46;;;;;;;4.20;1.83;;;23.80;54.80;;;;;;4421893;32;19978;-69
2022/08/10 00:37:14;;;;;;;5.70;2.10;;;23.70;55.00;;;;;;4421814;32;20004;-69
2022/08/10 00:39:41;;;;;;;3.40;1.60;;;23.70;55.20;;;;;;4421736;32;19996;-68
2022/08/10 00:42:10;;;;;;;2.62;1.80;;;23.70;55.20;;;;;;4421854;32;20011;-69
2022/08/10 00:44:40;;;;;;;4.45;1.92;;;23.60;55.30;;;;;;4421378;32;20116;-68
2022/08/10 00:47:08;;;;;;;3.72;1.85;;;23.50;55.40;;;;;;4421511;32;19965;-69
2022/08/10 00:49:35;;;;;;;1.90;1.45;;;23.60;55.50;;;;;;4421510;32;19996;-68
2022/08/10 00:52:03;;;;;;;3.30;2.20;;;23.50;55.70;;;;;;4421597;32;19964;-69
2022/08/10 00:54:30;;;;;;;3.40;1.67;;;23.80;55.40;;;;;;4421222;32;19972;-69
2022/08/10 00:56:57;;;;;;;4.10;1.90;;;23.80;55.30;;;;;;4421601;32;19959;-69
2022/08/10 00:59:24;;;;;;;3.08;1.75;;;23.80;55.60;;;;;;4421633;32;19993;-69
2022/08/10 01:01:52;;;;;;;4.25;2.10;;;23.80;55.70;;;;;;4421612;32;19970;-69
2022/08/10 01:04:19;;;;;;;2.28;1.70;;;23.60;56.00;;;;;;4421516;32;19958;-69
2022/08/10 01:06:58;;;;;;;3.60;1.92;;;23.50;56.20;;;;;;4421242;32;19971;-69
2022/08/10 01:09:31;;;;;;;2.95;1.80;;;23.40;56.50;;;;;;4421469;32;19977;-69
2022/08/10 01:12:05;;;;;;;2.28;1.80;;;23.50;56.80;;;;;;4420196;32;20038;-69
2022/08/10 01:14:37;;;;;;;4.30;2.22;;;23.40;56.80;;;;;;4421332;32;20000;-69
2022/08/10 01:17:11;;;;;;;5.15;1.70;;;23.40;57.00;;;;;;4421345;32;19999;-69
2022/08/10 01:20:05;;;;;;;2.37;1.80;;;23.40;57.00;;;;;;4421439;32;20001;-69
2022/08/10 01:22:47;;;;;;;2.80;1.67;;;23.40;57.00;;;;;;4408432;32;19959;-69
2022/08/10 01:25:34;;;;;;;2.65;1.70;;;23.40;57.10;;;;;;4421301;32;20146;-69
2022/08/10 01:28:13;;;;;;;3.10;1.77;;;23.40;57.50;;;;;;4421160;32;19973;-69
2022/08/10 01:30:45;;;;;;;2.90;1.98;;;23.30;57.40;;;;;;4421172;32;20018;-68
2022/08/10 01:33:18;;;;;;;3.05;1.67;;;23.40;57.40;;;;;;4412379;32;20104;-69
2022/08/10 01:35:52;;;;;;;4.45;1.77;;;23.50;57.30;;;;;;4421180;32;20149;-69
2022/08/10 01:38:23;;;;;;;3.92;1.77;;;23.50;57.50;;;;;;4418583;32;20048;-69
2022/08/10 01:40:53;;;;;;;4.13;1.73;;;23.50;57.50;;;;;;4420649;32;19963;-69
2022/08/10 01:43:21;;;;;;;2.28;1.75;;;23.50;57.70;;;;;;4420996;32;20055;-68
2022/08/10 01:45:53;;;;;;;4.47;1.73;;;23.60;57.30;;;;;;4420906;32;20001;-69
2022/08/10 01:48:30;;;;;;;3.83;1.62;;;23.50;57.50;;;;;;4420820;32;20022;-69
2022/08/10 01:51:04;;;;;;;3.75;1.50;;;23.40;57.80;;;;;;4420928;32;20105;-68
2022/08/10 01:53:37;;;;;;;4.57;1.95;;;23.30;58.00;;;;;;4418010;32;19970;-68
2022/08/10 01:56:05;;;;;;;3.53;2.10;;;23.30;58.10;;;;;;4420408;32;19980;-68
2022/08/10 01:58:35;;;;;;;1.75;1.40;;;23.30;58.10;;;;;;4420679;32;20147;-68
2022/08/10 02:01:04;;;;;;;2.92;1.98;;;23.40;57.90;;;;;;4420723;32;19991;-68
2022/08/10 02:03:32;;;;;;;2.12;1.70;;;23.40;58.00;;;;;;4420583;32;19993;-69
2022/08/10 02:06:00;;;;;;;3.00;1.80;;;23.40;58.00;;;;;;4420719;32;20003;-69
2022/08/10 02:08:30;;;;;;;2.80;1.80;;;23.30;58.00;;;;;;4420699;32;20009;-68
2022/08/10 02:10:58;;;;;;;5.50;1.65;;;23.40;57.90;;;;;;4420477;32;19997;-68
2022/08/10 02:13:27;;;;;;;3.00;1.80;;;23.30;58.00;;;;;;4420431;32;19963;-69
2022/08/10 02:15:58;;;;;;;4.30;1.85;;;23.30;58.10;;;;;;4420486;32;19965;-68
2022/08/10 02:18:27;;;;;;;3.12;1.73;;;23.30;58.10;;;;;;4420354;32;20326;-68
2022/08/10 02:20:55;;;;;;;3.40;1.87;;;23.20;58.30;;;;;;4420501;32;19972;-69
2022/08/10 02:23:30;;;;;;;4.70;1.85;;;23.30;58.20;;;;;;4420321;32;20069;-68
2022/08/10 02:26:00;;;;;;;3.00;1.87;;;23.20;58.20;;;;;;4420471;32;20003;-69
2022/08/10 02:28:29;;;;;;;1.75;1.60;;;23.20;58.30;;;;;;4418528;32;20154;-68
2022/08/10 02:30:59;;;;;;;3.00;1.70;;;23.20;58.40;;;;;;4420256;32;19988;-69
2022/08/10 02:33:28;;;;;;;3.33;1.80;;;23.20;58.40;;;;;;4420411;32;19991;-68
2022/08/10 02:35:56;;;;;;;2.92;1.77;;;23.10;58.50;;;;;;4420262;32;19961;-68
2022/08/10 02:38:31;;;;;;;1.90;1.70;;;23.10;58.40;;;;;;4420446;32;19988;-68
2022/08/10 02:41:08;;;;;;;4.20;1.90;;;23.10;58.60;;;;;;4420377;32;19961;-69
2022/08/10 02:43:42;;;;;;;3.00;1.70;;;23.00;58.80;;;;;;4414551;32;19963;-69
2022/08/10 02:46:13;;;;;;;3.37;1.83;;;22.90;59.00;;;;;;4418286;32;19987;-68
2022/08/10 02:48:44;;;;;;;3.03;1.90;;;23.00;58.90;;;;;;4420073;32;20165;-69
2022/08/10 02:51:15;;;;;;;5.25;1.98;;;23.00;58.80;;;;;;4420076;32;19991;-69
2022/08/10 02:53:47;;;;;;;3.35;1.90;;;23.00;59.20;;;;;;4420206;32;20023;-68
2022/08/10 02:56:22;;;;;;;2.45;1.67;;;22.80;59.30;;;;;;4420055;32;19963;-69
2022/08/10 02:58:55;;;;;;;2.90;2.00;;;22.80;59.60;;;;;;4416926;32;19968;-68
2022/08/10 03:01:33;;;;;;;4.62;2.00;;;22.70;59.80;;;;;;4416536;32;19962;-68
2022/08/10 03:04:06;;;;;;;3.10;2.05;;;22.60;60.20;;;;;;4406532;32;20006;-68
2022/08/10 03:06:37;;;;;;;2.72;1.80;;;22.50;61.00;;;;;;4419762;32;19997;-68
2022/08/10 03:09:07;;;;;;;3.13;1.80;;;22.30;61.00;;;;;;4419772;32;20059;-68
2022/08/10 03:11:35;;;;;;;2.67;1.83;;;22.20;61.40;;;;;;4420108;32;19988;-69
2022/08/10 03:14:04;;;;;;;3.87;2.00;;;22.10;61.30;;;;;;4418437;32;19986;-68
2022/08/10 03:16:32;;;;;;;2.15;1.90;;;22.30;61.30;;;;;;4420232;32;19996;-69
2022/08/10 03:19:04;;;;;;;3.83;1.75;;;22.40;60.90;;;;;;4419913;32;19964;-69
2022/08/10 03:21:32;;;;;;;3.72;1.95;;;22.30;61.30;;;;;;4419826;32;20159;-68
2022/08/10 03:24:01;;;;;;;4.07;2.20;;;22.40;61.40;;;;;;4419811;32;19958;-69
2022/08/10 03:26:29;;;;;;;3.08;1.60;;;22.30;61.60;;;;;;4419740;32;19958;-68
2022/08/10 03:28:57;;;;;;;3.83;1.92;;;22.20;61.60;;;;;;4419942;32;19956;-69
2022/08/10 03:31:25;;;;;;;3.55;1.70;;;22.30;61.70;;;;;;4418232;32;20013;-69
2022/08/10 03:33:53;;;;;;;2.58;1.95;;;22.30;61.60;;;;;;4414530;32;19990;-69
2022/08/10 03:36:22;;;;;;;4.18;1.98;;;22.30;61.90;;;;;;4419762;32;19993;-69
2022/08/10 03:38:51;;;;;;;3.58;2.10;;;22.50;61.60;;;;;;4419760;32;20043;-68
2022/08/10 03:41:22;;;;;;;2.97;2.25;;;22.40;61.50;;;;;;4419615;32;19958;-69
2022/08/10 03:43:50;;;;;;;3.50;2.10;;;22.40;61.60;;;;;;4419657;32;19963;-68
2022/08/10 03:46:21;;;;;;;3.30;2.08;;;22.40;61.70;;;;;;4419614;32;20167;-69
2022/08/10 03:48:51;;;;;;;3.35;1.80;;;22.40;61.70;;;;;;4417950;32;19998;-68
2022/08/10 03:51:19;;;;;;;3.42;1.98;;;22.30;61.80;;;;;;4419652;32;19991;-69
2022/08/10 03:53:49;;;;;;;4.43;1.80;;;22.30;61.80;;;;;;4419658;32;19993;-69
2022/08/10 03:56:17;;;;;;;3.08;1.85;;;22.20;62.00;;;;;;4419508;32;20044;-69
2022/08/10 03:58:43;;;;;;;3.50;2.37;;;22.50;62.20;;;;;;4419833;32;20019;-68
2022/08/10 04:01:11;;;;;;;2.65;2.00;;;22.50;61.40;;;;;;4419321;32;19953;-69
2022/08/10 04:03:38;;;;;;;3.53;2.15;;;22.40;61.70;;;;;;4419351;32;20007;-68
2022/08/10 04:06:05;;;;;;;4.15;1.90;;;22.50;61.60;;;;;;4419139;32;20110;-68
2022/08/10 04:08:33;;;;;;;3.58;1.90;;;22.40;61.60;;;;;;4419296;32;19998;-69
2022/08/10 04:11:01;;;;;;;2.80;1.98;;;22.40;61.90;;;;;;4419323;32;19996;-69
2022/08/10 04:13:27;;;;;;;6.03;2.70;;;22.40;61.90;;;;;;4419805;32;19996;-69
2022/08/10 04:15:54;;;;;;;3.47;2.28;;;22.60;61.50;;;;;;4419441;32;19988;-69
2022/08/10 04:18:21;;;;;;;5.62;2.33;;;22.50;61.90;;;;;;4419352;32;20010;-69
2022/08/10 04:20:50;;;;;;;3.25;2.10;;;22.50;62.60;;;;;;4421151;32;19996;-67
2022/08/10 04:23:20;;;;;;;3.28;2.22;;;22.90;60.70;;;;;;4422266;32;19993;-68
2022/08/10 04:25:46;;;;;;;2.70;1.98;;;22.90;60.50;;;;;;4418315;32;19974;-68
2022/08/10 04:28:14;;;;;;;2.60;2.00;;;22.80;60.80;;;;;;4422146;32;20133;-69
2022/08/10 04:30:43;;;;;;;2.60;1.87;;;22.60;61.70;;;;;;4422127;32;19982;-69
2022/08/10 04:33:13;;;;;;;2.85;2.10;;;22.50;62.70;;;;;;4421785;32;19963;-69
2022/08/10 04:35:41;;;;;;;5.43;2.20;;;22.50;61.80;;;;;;4422137;32;20080;-69
2022/08/10 04:38:09;;;;;;;3.15;2.03;;;22.40;62.70;;;;;;4422093;32;19991;-68
2022/08/10 04:40:36;;;;;;;3.58;2.17;;;22.00;63.00;;;;;;4421788;32;19965;-68
2022/08/10 04:43:04;;;;;;;4.43;2.20;;;21.90;63.50;;;;;;4421975;32;19991;-68
2022/08/10 04:45:32;;;;;;;3.60;2.20;;;21.80;63.90;;;;;;4421093;32;19995;-69
2022/08/10 04:47:59;;;;;;;2.50;2.03;;;21.80;64.40;;;;;;4421773;32;20112;-69
2022/08/10 04:50:26;;;;;;;4.55;2.10;;;21.80;64.40;;;;;;4421714;32;20038;-69
2022/08/10 04:52:53;;;;;;;4.07;2.10;;;21.90;64.10;;;;;;4421759;32;19990;-69
2022/08/10 04:55:20;;;;;;;4.93;2.53;;;21.90;64.40;;;;;;4421654;32;19961;-69
2022/08/10 04:57:47;;;;;;;3.55;2.08;;;21.70;65.10;;;;;;4421732;32;19995;-69
2022/08/10 05:00:14;;;;;;;3.17;2.10;;;21.90;64.50;;;;;;4421468;32;20080;-69
2022/08/10 05:02:42;;;;;;;4.43;2.10;;;22.00;64.30;;;;;;4421647;32;19993;-69
2022/08/10 05:05:10;;;;;;;7.75;2.50;;;22.00;64.80;;;;;;4421497;32;19971;-69
2022/08/10 05:07:36;;;;;;;3.30;2.65;;;22.00;64.70;;;;;;4421559;32;20002;-69
2022/08/10 05:10:04;;;;;;;5.82;3.10;;;21.40;65.80;;;;;;4421458;32;19972;-68
2022/08/10 05:12:32;;;;;;;4.47;2.60;;;20.50;67.40;;;;;;4421381;32;20011;-67
2022/08/10 05:14:59;;;;;;;8.20;3.08;;;20.10;69.40;;;;;;4421399;32;19990;-68
2022/08/10 05:17:25;;;;;;;4.05;2.80;;;19.80;71.60;;;;;;4421358;32;19968;-67
2022/08/10 05:19:53;;;;;;;4.37;2.58;;;19.10;73.20;;;;;;4414476;32;20163;-69
2022/08/10 05:22:20;;;;;;;9.43;3.20;;;18.90;74.20;;;;;;4421433;32;19986;-68
2022/08/10 05:24:47;;;;;;;4.68;3.15;;;19.00;74.40;;;;;;4421199;32;19992;-69
2022/08/10 05:27:13;;;;;;;7.75;3.35;;;19.40;73.00;;;;;;4421236;32;20139;-68
2022/08/10 05:29:40;;;;;;;8.63;3.33;;;20.00;70.60;;;;;;4421134;32;20043;-68
2022/08/10 05:32:07;;;;;;;4.68;2.80;;;20.00;70.80;;;;;;4420385;32;19988;-68
2022/08/10 05:34:34;;;;;;;3.87;2.58;;;19.80;71.60;;;;;;4421194;32;19994;-69
2022/08/10 05:37:04;;;;;;;4.90;2.85;;;19.50;72.30;;;;;;4421297;32;19961;-69
2022/08/10 05:39:31;;;;;;;4.05;2.33;;;20.10;70.70;;;;;;4421180;32;19990;-69
2022/08/10 05:41:59;;;;;;;4.87;2.60;;;20.60;69.00;;;;;;4421194;32;19989;-69
2022/08/10 05:44:26;;;;;;;4.78;3.40;;;20.30;71.00;;;;;;4421089;32;20106;-69
2022/08/10 05:46:53;;;;;;;6.22;2.75;;;20.40;72.80;;;;;;4418632;32;20008;-68
2022/08/10 05:49:19;;;;;;;4.12;2.60;;;20.50;73.20;;;;;;4421011;32;20143;-69
2022/08/10 05:51:46;;;;;;;4.70;2.80;;;20.50;72.60;;;;;;4418950;32;19986;-68
2022/08/10 05:54:17;;;;;;;3.53;2.70;;;20.80;74.50;;;;;;4421058;32;20015;-68
2022/08/10 05:56:46;;;;;;;4.60;2.50;;;21.40;72.80;;;;;;4420939;32;20022;-69
2022/08/10 05:59:14;;;;;;;3.65;2.58;;;22.20;70.00;;;;;;4420911;32;20167;-69
2022/08/10 06:01:44;;;;;;;4.37;2.30;;;22.70;68.50;;;;;;4420892;32;19989;-69
2022/08/10 06:04:17;;;;;;;4.37;2.55;;;24.00;65.80;;;;;;4420896;32;19988;-69
2022/08/10 06:06:47;;;;;;;4.40;2.70;;;25.20;61.90;;;;;;4420850;32;19967;-69
2022/08/10 06:09:16;;;;;;;3.83;2.10;;;25.30;60.80;;;;;;4420723;32;19974;-69
2022/08/10 06:11:44;;;;;;;4.00;2.12;;;26.60;58.50;;;;;;4421095;32;20037;-69
2022/08/10 06:16:59;;;;;;;3.17;2.00;;;28.60;55.30;;;;;;4420703;32;19992;-69
2022/08/10 06:19:27;;;;;;;4.70;2.50;;;29.10;53.70;;;;;;4420606;32;19958;-69
2022/08/10 06:21:56;;;;;;;4.87;2.30;;;28.10;55.90;;;;;;4420599;32;19982;-69
2022/08/10 06:24:26;;;;;;;3.80;2.37;;;27.40;57.00;;;;;;4420585;32;20041;-68
2022/08/10 06:26:53;;;;;;;3.87;2.28;;;27.30;57.30;;;;;;4420597;32;20006;-69
2022/08/10 06:29:21;;;;;;;2.97;2.25;;;28.10;56.70;;;;;;4420477;32;19990;-69
2022/08/10 06:31:50;;;;;;;4.25;2.40;;;28.30;55.60;;;;;;4420554;32;20016;-68
2022/08/10 06:34:23;;;;;;;5.72;2.70;;;26.90;58.30;;;;;;4420235;32;19988;-69
2022/08/10 06:36:51;;;;;;;5.85;2.58;;;27.50;56.80;;;;;;4420465;32;20134;-69
2022/08/10 06:39:18;;;;;;;4.57;2.50;;;26.40;58.80;;;;;;4420448;32;19994;-69
2022/08/10 06:41:49;;;;;;;4.93;2.28;;;26.90;57.70;;;;;;4420357;32;20129;-69
2022/08/10 06:44:20;;;;;;;7.12;2.62;;;27.60;57.40;;;;;;4420181;32;19974;-69
2022/08/10 06:46:51;;;;;;;5.65;2.50;;;26.80;58.20;;;;;;4420398;32;19972;-69
2022/08/10 06:49:22;;;;;;;5.17;2.40;;;27.20;57.30;;;;;;4420164;32;19957;-69
2022/08/10 06:51:53;;;;;;;3.47;2.20;;;27.60;57.20;;;;;;4420387;32;19972;-69
2022/08/10 06:54:23;;;;;;;4.18;2.37;;;27.80;57.10;;;;;;4420328;32;19974;-69
2022/08/10 06:56:53;;;;;;;5.35;2.47;;;28.60;55.50;;;;;;4420190;32;19986;-69
2022/08/10 06:59:22;;;;;;;4.55;2.37;;;27.90;55.90;;;;;;4420311;32;20102;-69
2022/08/10 07:01:57;;;;;;;4.40;2.70;;;26.90;58.50;;;;;;4420091;32;19974;-69
2022/08/10 07:04:27;;;;;;;4.53;2.30;;;28.00;57.00;;;;;;4420178;32;20077;-69
2022/08/10 07:06:56;;;;;;;6.20;2.70;;;28.30;55.90;;;;;;4420166;32;19991;-69
2022/08/10 07:09:24;;;;;;;5.43;2.67;;;28.60;55.70;;;;;;4420063;32;20008;-69
2022/08/10 07:11:54;;;;;;;8.32;3.12;;;28.80;55.60;;;;;;4420131;32;20072;-69
2022/08/10 07:14:23;;;;;;;6.55;2.85;;;28.40;56.30;;;;;;4420072;32;19996;-69
2022/08/10 07:16:51;;;;;;;4.50;2.37;;;29.20;55.30;;;;;;4420060;32;19986;-70
2022/08/10 07:19:19;;;;;;;4.78;2.22;;;29.10;54.10;;;;;;4419960;32;19997;-70
2022/08/10 07:21:47;;;;;;;4.70;2.47;;;28.40;54.80;;;;;;4418401;32;19993;-70
2022/08/10 07:24:15;;;;;;;7.43;2.50;;;28.90;55.10;;;;;;4420119;32;19971;-69
2022/08/10 07:26:46;;;;;;;3.78;2.30;;;29.60;54.60;;;;;;4419107;32;19999;-70
2022/08/10 07:29:16;;;;;;;3.85;2.40;;;30.10;54.40;;;;;;4420163;32;19992;-69
2022/08/10 07:31:44;;;;;;;4.30;2.00;;;30.30;54.40;;;;;;4419992;32;20006;-70
2022/08/10 07:34:14;;;;;;;3.33;2.00;;;30.20;54.50;;;;;;4419825;32;19968;-69
2022/08/10 07:36:44;;;;;;;5.18;2.10;;;30.10;54.50;;;;;;4419912;32;19995;-69
2022/08/10 07:39:13;;;;;;;3.90;2.30;;;30.50;54.20;;;;;;4420163;32;19954;-70
2022/08/10 07:41:42;;;;;;;4.43;2.17;;;29.80;54.40;;;;;;4419860;32;19955;-69
2022/08/10 07:44:10;;;;;;;4.75;2.15;;;30.50;54.10;;;;;;4419753;32;19959;-69
2022/08/10 07:46:43;;;;;;;4.40;2.00;;;30.70;54.20;;;;;;4419799;32;19974;-69
2022/08/10 07:49:14;;;;;;;3.47;2.00;;;31.00;53.00;;;;;;4419863;32;20000;-69
2022/08/10 07:51:41;;;;;;;5.28;2.12;;;30.10;53.40;;;;;;4418311;32;20042;-69
2022/08/10 07:54:14;;;;;;;3.87;2.20;;;29.30;54.70;;;;;;4418056;32;19999;-69
2022/08/10 07:56:43;;;;;;;5.43;2.33;;;30.30;54.30;;;;;;4422764;32;19974;-68
2022/08/10 07:59:12;;;;;;;3.45;1.90;;;30.90;52.40;;;;;;4422710;32;20013;-68
2022/08/10 08:01:44;;;;;;;3.30;1.90;;;31.30;51.10;;;;;;4422628;32;19974;-68
2022/08/10 08:04:13;;;;;;;4.03;2.10;;;32.00;50.20;;;;;;4422638;32;19960;-68
2022/08/10 08:06:41;;;;;;;2.28;1.50;;;32.30;50.50;;;;;;4422587;32;19981;-68
2022/08/10 08:09:09;;;;;;;1.85;1.50;;;32.00;47.80;;;;;;4422570;32;20021;-68
2022/08/10 08:11:36;;;;;;;3.22;1.95;;;32.80;48.50;;;;;;4422441;32;19951;-68
2022/08/10 08:14:05;;;;;;;4.55;1.90;;;33.10;49.70;;;;;;4422464;32;19976;-68
2022/08/10 08:16:34;;;;;;;2.90;1.80;;;33.10;49.50;;;;;;4422412;32;19968;-68
2022/08/10 08:19:03;;;;;;;3.67;1.50;;;33.20;47.30;;;;;;4421087;32;19970;-67
2022/08/10 08:21:30;;;;;;;5.12;1.60;;;33.80;45.90;;;;;;4422511;32;19961;-69
2022/08/10 08:23:57;;;;;;;3.60;2.00;;;34.00;45.50;;;;;;4422376;32;19988;-69
2022/08/10 08:26:25;;;;;;;2.00;1.60;;;34.10;45.40;;;;;;4422188;32;20135;-68
2022/08/10 08:28:53;;;;;;;2.95;1.58;;;34.70;43.80;;;;;;4422328;32;20001;-69
2022/08/10 08:31:21;;;;;;;3.35;1.52;;;35.20;43.80;;;;;;4422177;32;19963;-69
2022/08/10 08:33:49;;;;;;;3.33;1.50;;;34.70;43.70;;;;;;4422235;32;19991;-68
2022/08/10 08:36:19;;;;;;;1.83;1.30;;;35.10;43.80;;;;;;4421397;32;20050;-68
2022/08/10 08:38:47;;;;;;;4.40;1.50;;;35.00;42.20;;;;;;4420218;32;19995;-69
2022/08/10 08:41:29;;;;;;;3.95;1.50;;;34.20;43.50;;;;;;4422060;32;19974;-69
2022/08/10 08:44:09;;;;;;;2.17;1.30;;;34.90;42.40;;;;;;4420221;32;20002;-68
2022/08/10 08:46:52;;;;;;;2.33;1.52;;;34.50;44.00;;;;;;4422002;32;19963;-69
2022/08/10 08:49:44;;;;;;;2.00;1.30;;;33.20;41.30;;;;;;4421996;32;20136;-68
2022/08/10 08:52:24;;;;;;;4.07;1.80;;;31.50;41.20;;;;;;4419489;32;19994;-68
2022/08/10 08:55:02;;;;;;;2.15;1.50;;;30.10;42.60;;;;;;4421882;32;19995;-68
2022/08/10 08:57:47;;;;;;;7.03;1.73;;;30.40;43.50;;;;;;4418425;32;19999;-69
2022/08/10 09:00:19;;;;;;;1.50;1.40;;;30.30;42.70;;;;;;4419982;32;20035;-68
2022/08/10 09:03:10;;;;;;;4.55;1.65;;;30.00;42.00;;;;;;4420028;32;19963;-69
2022/08/10 09:05:45;;;;;;;3.05;1.40;;;30.50;42.30;;;;;;4421646;32;19967;-68
2022/08/10 09:08:35;;;;;;;1.90;1.20;;;29.70;43.80;;;;;;4421709;32;19996;-69
2022/08/10 09:11:13;;;;;;;1.70;1.50;;;29.60;43.10;;;;;;4420250;32;20000;-69
2022/08/10 09:13:44;;;;;;;2.40;1.50;;;30.50;42.50;;;;;;4420593;32;19992;-69
2022/08/10 09:16:24;;;;;;;1.33;1.23;;;30.30;43.00;;;;;;4421643;32;19989;-69
2022/08/10 09:19:00;;;;;;;2.58;1.30;;;29.80;42.50;;;;;;4421583;32;19965;-69
2022/08/10 09:21:36;;;;;;;1.52;1.30;;;30.50;41.50;;;;;;4421504;32;19976;-69
2022/08/10 09:24:12;;;;;;;3.00;1.42;;;30.00;42.00;;;;;;4421420;32;19990;-69
2022/08/10 09:26:48;;;;;;;4.03;1.60;;;29.80;42.50;;;;;;4421363;32;19968;-69
2022/08/10 09:29:20;;;;;;;3.00;1.30;;;30.20;42.50;;;;;;4421336;32;20004;-69
2022/08/10 09:31:51;;;;;;;5.20;1.50;;;29.70;42.40;;;;;;4421328;32;20018;-69
2022/08/10 09:34:23;;;;;;;2.83;1.33;;;31.60;41.50;;;;;;4417180;32;19994;-69
2022/08/10 09:36:54;;;;;;;;;;;31.10;41.90;;;;;;4421792;32;19963;-69
2022/08/10 09:39:27;;;;;;;3.55;1.30;;;32.00;39.20;;;;;;4421457;32;19919;-69
2022/08/10 09:42:04;;;;;;;2.28;1.33;;;32.10;38.60;;;;;;4419354;32;19992;-69
2022/08/10 09:44:38;;;;;;;5.75;1.75;;;32.40;38.90;;;;;;4417677;32;19959;-69
2022/08/10 09:47:34;;;;;;;3.78;1.50;;;32.20;39.40;;;;;;4421400;32;19976;-68
2022/08/10 09:50:09;;;;;;;4.25;1.83;;;31.30;40.50;;;;;;4414839;32;20130;-69
2022/08/10 09:52:48;;;;;;;3.12;1.50;;;31.00;40.70;;;;;;4421184;32;19967;-69
2022/08/10 09:55:23;;;;;;;4.00;1.77;;;31.10;40.80;;;;;;4421190;32;20064;-69
2022/08/10 09:58:00;;;;;;;3.05;1.40;;;31.20;40.90;;;;;;4408143;32;19965;-69
2022/08/10 10:00:34;;;;;;;2.60;1.70;;;31.70;40.00;;;;;;4421179;32;19968;-69
2022/08/10 10:03:14;;;;;;;3.12;1.50;;;32.30;39.30;;;;;;4415649;32;20027;-70
2022/08/10 10:06:01;;;;;;;1.83;1.30;;;32.20;38.60;;;;;;4420838;32;19998;-68
2022/08/10 10:08:32;;;;;;;1.40;1.25;;;31.70;38.30;;;;;;4419187;32;20049;-69
2022/08/10 10:11:11;;;;;;;4.70;1.40;;;31.20;38.80;;;;;;4420996;32;20002;-69
2022/08/10 10:13:49;;;;;;;2.42;1.55;;;31.50;39.40;;;;;;4420891;32;19974;-69
2022/08/10 10:16:39;;;;;;;2.90;1.40;;;32.30;38.60;;;;;;4420985;32;20020;-69
2022/08/10 10:19:22;;;;;;;4.22;1.83;;;32.60;38.90;;;;;;4418387;32;19966;-69
2022/08/10 10:21:54;;;;;;;1.83;1.30;;;33.20;37.90;;;;;;4413974;32;19999;-69
2022/08/10 10:24:29;;;;;;;3.22;1.50;;;33.00;38.30;;;;;;4420773;32;19985;-68
2022/08/10 10:27:06;;;;;;;1.62;1.27;;;34.90;38.40;;;;;;4420767;32;19975;-69
2022/08/10 10:29:41;;;;;;;2.72;1.50;;;33.70;38.30;;;;;;4420654;32;20018;-69
2022/08/10 10:32:15;;;;;;;2.00;1.40;;;32.60;38.20;;;;;;4420725;32;19961;-69
2022/08/10 10:34:50;;;;;;;3.72;1.60;;;31.90;38.70;;;;;;4420655;32;20138;-69
2022/08/10 10:37:19;;;;;;;2.55;1.80;;;31.70;39.50;;;;;;4420599;32;19965;-69
2022/08/10 10:39:51;;;;;;;2.45;1.33;;;32.40;40.00;;;;;;4420539;32;19963;-69
2022/08/10 10:42:30;;;;;;;3.72;1.65;;;32.30;40.20;;;;;;4420562;32;20021;-69
2022/08/10 10:45:08;;;;;;;2.97;1.30;;;31.70;40.00;;;;;;4412394;32;19986;-69
2022/08/10 10:47:51;;;;;;;2.10;1.50;;;33.80;39.20;;;;;;4420408;32;20024;-69
2022/08/10 10:50:24;;;;;;;3.12;1.42;;;34.00;37.60;;;;;;4415502;32;19965;-69
2022/08/10 10:53:01;;;;;;;2.45;1.55;;;32.60;39.60;;;;;;4419566;32;20108;-69
2022/08/10 10:55:34;;;;;;;2.95;1.40;;;32.40;38.70;;;;;;4415290;32;19975;-69
2022/08/10 10:58:10;;;;;;;2.30;1.40;;;31.90;40.10;;;;;;4416618;32;19974;-69
2022/08/10 11:00:50;;;;;;;4.32;1.50;;;32.30;39.40;;;;;;4418189;32;20023;-69
2022/08/10 11:03:33;;;;;;;3.87;1.50;;;34.10;37.90;;;;;;4420259;32;19974;-69
2022/08/10 11:06:09;;;;;;;2.87;1.55;;;34.10;38.40;;;;;;4420128;32;19997;-69
2022/08/10 11:08:40;;;;;;;3.42;1.50;;;33.50;39.50;;;;;;4420232;32;19972;-69
2022/08/10 11:11:13;;;;;;;2.03;1.60;;;33.30;39.20;;;;;;4420362;32;19969;-69
2022/08/10 11:13:50;;;;;;;2.60;1.30;;;36.10;38.00;;;;;;4415309;32;19968;-68
2022/08/10 11:16:24;;;;;;;3.00;1.30;;;35.60;37.10;;;;;;4419039;32;19975;-69
2022/08/10 11:19:00;;;;;;;2.55;1.45;;;34.00;40.30;;;;;;4419849;32;19999;-69
2022/08/10 11:21:43;;;;;;;3.05;1.30;;;33.60;38.60;;;;;;4420108;32;20080;-69
2022/08/10 11:24:19;;;;;;;2.78;1.30;;;36.10;37.20;;;;;;4413227;32;20111;-69
2022/08/10 11:26:49;;;;;;;1.98;1.50;;;36.10;37.00;;;;;;4419989;32;19986;-68
2022/08/10 11:29:24;;;;;;;1.83;1.40;;;37.30;37.20;;;;;;4420183;32;20055;-69
2022/08/10 11:31:56;;;;;;;3.87;1.40;;;38.40;35.90;;;;;;4423238;32;20012;-69
2022/08/10 11:34:32;;;;;;;3.10;1.50;;;36.20;37.80;;;;;;4423136;32;19998;-69
2022/08/10 11:37:08;;;;;;;2.97;1.62;;;35.40;37.40;;;;;;4423133;32;20006;-70
2022/08/10 11:39:39;;;;;;;3.55;1.55;;;34.40;38.10;;;;;;4423150;32;20071;-69
2022/08/10 11:42:13;;;;;;;2.80;1.52;;;35.50;39.80;;;;;;4423135;32;19980;-70
2022/08/10 11:44:50;;;;;;;3.80;1.58;;;36.60;37.20;;;;;;4423034;32;19995;-69
2022/08/10 11:47:19;;;;;;;2.95;1.50;;;36.60;37.20;;;;;;4423060;32;19993;-70
2022/08/10 11:49:52;;;;;;;2.37;1.50;;;36.30;37.40;;;;;;4422987;32;20136;-68
2022/08/10 11:52:28;;;;;;;3.53;1.17;;;34.80;37.70;;;;;;4423062;32;19993;-69
2022/08/10 11:54:58;;;;;;;2.60;1.60;;;34.10;39.60;;;;;;4422936;32;19987;-69
2022/08/10 11:57:33;;;;;;;4.93;1.48;;;34.10;38.70;;;;;;4422885;32;19991;-69
2022/08/10 12:00:00;;;;;;;2.75;1.40;;;34.30;39.10;;;;;;4422918;32;20106;-69
2022/08/10 12:02:32;;;;;;;3.03;1.62;;;33.60;40.20;;;;;;4422802;32;20101;-69
2022/08/10 12:05:04;;;;;;;3.95;1.80;;;33.50;39.10;;;;;;4422863;32;19966;-68
2022/08/10 12:07:32;;;;;;;3.40;1.50;;;32.00;40.50;;;;;;4421792;32;19995;-69
2022/08/10 12:10:00;;;;;;;4.05;1.70;;;31.10;42.50;;;;;;4422636;32;20013;-69
2022/08/10 12:12:30;;;;;;;3.20;1.52;;;31.30;42.60;;;;;;4422722;32;19988;-70
2022/08/10 12:15:02;;;;;;;3.62;1.67;;;31.80;42.10;;;;;;4422637;32;19993;-68
2022/08/10 12:17:35;;;;;;;2.58;1.62;;;31.90;41.40;;;;;;4422724;32;20162;-69
2022/08/10 12:20:08;;;;;;;2.10;1.60;;;32.00;41.50;;;;;;4422406;32;19998;-69
2022/08/10 12:22:43;;;;;;;2.08;1.60;;;31.90;41.90;;;;;;4422474;32;20046;-69
2022/08/10 12:25:15;;;;;;;2.35;1.55;;;31.60;41.90;;;;;;4422545;32;19990;-69
2022/08/10 12:27:48;;;;;;;4.03;1.60;;;31.50;42.90;;;;;;4422437;32;20002;-69
2022/08/10 12:30:20;;;;;;;2.78;1.90;;;31.50;42.10;;;;;;4422356;32;20015;-69
2022/08/10 12:32:54;;;;;;;3.30;1.60;;;31.40;42.50;;;;;;4422363;32;19968;-69
2022/08/10 12:35:32;;;;;;;1.92;1.45;;;31.40;43.00;;;;;;4422318;32;20047;-69
2022/08/10 12:38:05;;;;;;;3.60;1.67;;;31.60;41.80;;;;;;4422574;32;19999;-69
2022/08/10 12:40:39;;;;;;;2.65;1.50;;;31.90;42.50;;;;;;4421907;32;19993;-70
2022/08/10 12:43:11;;;;;;;1.85;1.60;;;32.10;42.20;;;;;;4422275;32;20001;-69
2022/08/10 12:45:42;;;;;;;;;;;31.60;41.50;;;;;;4422565;32;19970;-70
2022/08/10 12:48:16;;;;;;;6.90;1.80;;;31.90;42.60;;;;;;4422164;32;19894;-69
2022/08/10 12:50:53;;;;;;;3.28;1.67;;;31.90;41.80;;;;;;4422100;32;20001;-70
2022/08/10 12:53:33;;;;;;;2.83;1.48;;;31.50;42.50;;;;;;4422196;32;20670;-68
2022/08/10 12:56:01;;;;;;;3.55;1.67;;;32.20;42.30;;;;;;4421961;32;19979;-69
2022/08/10 12:58:30;;;;;;;2.70;1.70;;;31.90;42.00;;;;;;4422044;32;20026;-68
2022/08/10 13:01:01;;;;;;;7.22;1.52;;;32.40;44.10;;;;;;4422063;32;19993;-69
2022/08/10 13:03:30;;;;;;;4.60;1.60;;;32.20;41.80;;;;;;4421899;32;19963;-69
2022/08/10 13:06:03;;;;;;;2.83;1.73;;;32.10;41.60;;;;;;4421796;32;19999;-69
2022/08/10 13:11:19;;;;;;;4.15;1.42;;;32.10;41.30;;;;;;4421759;32;20047;-69
2022/08/10 13:13:47;;;;;;;3.15;1.60;;;31.90;41.40;;;;;;4420934;32;19972;-69